TimeCDT,TemperatureF,Dew PointF,Humidity,Sea Level PressureIn,VisibilityMPH,Wind Direction,Wind SpeedMPH,Gust SpeedMPH,PrecipitationIn,Events,Conditions,WindDirDegrees,DateUTC
12:15 AM,53.6,41.0,62,30.02,10.0,Calm,Calm,-,N/A,,Mostly Cloudy,0,2012-09-30 05:15:00
12:55 AM,55.4,41.0,58,30.01,10.0,Calm,Calm,-,N/A,,Mostly Cloudy,0,2012-09-30 05:55:00
1:15 AM,51.8,41.0,67,30.00,10.0,Calm,Calm,-,N/A,,Mostly Cloudy,0,2012-09-30 06:15:00
1:35 AM,51.8,41.0,67,30.01,10.0,North,5.8,-,N/A,,Mostly Cloudy,350,2012-09-30 06:35:00
1:55 AM,50.0,41.0,71,30.00,10.0,Calm,Calm,-,N/A,,Partly Cloudy,0,2012-09-30 06:55:00
2:15 AM,50.0,41.0,71,30.00,10.0,Calm,Calm,-,N/A,,Clear,0,2012-09-30 07:15:00
2:35 AM,50.0,41.0,71,29.99,10.0,Calm,Calm,-,N/A,,Clear,0,2012-09-30 07:35:00
2:55 AM,50.0,41.0,71,29.99,10.0,Calm,Calm,-,N/A,,Partly Cloudy,0,2012-09-30 07:55:00
3:15 AM,48.2,41.0,76,29.99,10.0,Calm,Calm,-,N/A,,Partly Cloudy,0,2012-09-30 08:15:00
3:35 AM,48.2,41.0,76,29.99,10.0,Calm,Calm,-,N/A,,Clear,0,2012-09-30 08:35:00
3:55 AM,46.4,41.0,81,29.99,10.0,Calm,Calm,-,N/A,,Clear,0,2012-09-30 08:55:00
4:15 AM,46.4,41.0,81,29.99,10.0,Calm,Calm,-,N/A,,Clear,0,2012-09-30 09:15:00
4:35 AM,44.6,41.0,87,29.99,10.0,Calm,Calm,-,N/A,,Clear,0,2012-09-30 09:35:00
4:55 AM,42.8,39.2,87,29.99,10.0,Calm,Calm,-,N/A,,Scattered Clouds,0,2012-09-30 09:55:00
5:15 AM,46.4,41.0,81,29.99,10.0,Calm,Calm,-,N/A,,Scattered Clouds,0,2012-09-30 10:15:00
5:35 AM,46.4,41.0,81,29.99,10.0,Calm,Calm,-,N/A,,Partly Cloudy,0,2012-09-30 10:35:00
5:55 AM,44.6,41.0,87,29.99,10.0,NNW,3.5,-,N/A,,Clear,340,2012-09-30 10:55:00
6:15 AM,42.8,39.2,87,29.99,10.0,Calm,Calm,-,N/A,,Clear,0,2012-09-30 11:15:00
6:35 AM,42.8,41.0,93,29.99,10.0,Calm,Calm,-,N/A,,Clear,0,2012-09-30 11:35:00
6:55 AM,42.8,41.0,93,29.99,9.0,Calm,Calm,-,N/A,,Clear,0,2012-09-30 11:55:00
7:15 AM,42.8,41.0,93,29.99,9.0,NE,3.5,-,N/A,,Clear,40,2012-09-30 12:15:00
7:35 AM,42.8,41.0,93,29.99,9.0,Calm,Calm,-,N/A,,Clear,0,2012-09-30 12:35:00
7:55 AM,44.6,41.0,87,29.99,10.0,ENE,6.9,-,N/A,,Clear,60,2012-09-30 12:55:00
8:15 AM,48.2,42.8,82,30.00,10.0,NE,3.5,-,N/A,,Clear,50,2012-09-30 13:15:00
8:35 AM,50.0,44.6,82,29.99,10.0,Calm,Calm,-,N/A,,Clear,0,2012-09-30 13:35:00
8:55 AM,51.8,44.6,76,30.00,10.0,East,4.6,-,N/A,,Clear,90,2012-09-30 13:55:00
9:15 AM,53.6,42.8,67,30.00,10.0,ESE,4.6,-,N/A,,Clear,120,2012-09-30 14:15:00
9:35 AM,55.4,42.8,63,30.00,10.0,Variable,4.6,-,N/A,,Clear,0,2012-09-30 14:35:00
9:55 AM,57.2,44.6,63,30.00,10.0,Calm,Calm,-,N/A,,Clear,0,2012-09-30 14:55:00
10:15 AM,59.0,42.8,55,30.00,10.0,Variable,5.8,-,N/A,,Clear,0,2012-09-30 15:15:00
10:35 AM,62.6,41.0,45,30.00,10.0,Variable,5.8,-,N/A,,Clear,0,2012-09-30 15:35:00
10:55 AM,62.6,39.2,42,30.00,10.0,Variable,4.6,-,N/A,,Clear,0,2012-09-30 15:55:00
11:15 AM,64.4,41.0,42,29.99,10.0,SE,6.9,-,N/A,,Clear,130,2012-09-30 16:15:00
11:35 AM,64.4,41.0,42,29.99,10.0,East,5.8,11.5,N/A,,Clear,90,2012-09-30 16:35:00
11:55 AM,66.2,41.0,40,29.99,10.0,Variable,6.9,-,N/A,,Clear,0,2012-09-30 16:55:00
12:15 PM,66.2,42.8,43,29.99,10.0,ESE,4.6,-,N/A,,Clear,110,2012-09-30 17:15:00
12:35 PM,66.2,42.8,43,29.99,10.0,SE,5.8,-,N/A,,Clear,140,2012-09-30 17:35:00
12:55 PM,68.0,41.0,37,29.99,10.0,ENE,5.8,-,N/A,,Clear,60,2012-09-30 17:55:00
1:15 PM,68.0,42.8,40,29.98,10.0,Variable,5.8,-,N/A,,Clear,0,2012-09-30 18:15:00
1:35 PM,69.8,42.8,38,29.97,8.0,Variable,4.6,-,N/A,,Clear,0,2012-09-30 18:35:00
1:55 PM,69.8,41.0,35,29.96,10.0,Variable,5.8,-,N/A,,Clear,0,2012-09-30 18:55:00
2:15 PM,71.6,39.2,31,29.95,10.0,East,9.2,-,N/A,,Clear,80,2012-09-30 19:15:00
2:35 PM,69.8,39.2,33,29.95,10.0,East,4.6,11.5,N/A,,Clear,90,2012-09-30 19:35:00
2:55 PM,71.6,39.2,31,29.95,9.0,East,8.1,-,N/A,,Clear,80,2012-09-30 19:55:00
3:15 PM,69.8,39.2,33,29.94,10.0,Variable,4.6,-,N/A,,Clear,0,2012-09-30 20:15:00
3:35 PM,69.8,39.2,33,29.94,10.0,East,6.9,-,N/A,,Clear,80,2012-09-30 20:35:00
3:55 PM,69.8,39.2,33,29.94,10.0,ESE,5.8,-,N/A,,Clear,110,2012-09-30 20:55:00
4:15 PM,69.8,39.2,33,29.93,9.0,Variable,3.5,-,N/A,,Clear,0,2012-09-30 21:15:00
4:35 PM,69.8,39.2,33,29.93,10.0,Variable,3.5,-,N/A,,Clear,0,2012-09-30 21:35:00
4:55 PM,69.8,41.0,35,29.93,10.0,NE,4.6,-,N/A,,Clear,50,2012-09-30 21:55:00
5:15 PM,69.8,41.0,35,29.93,10.0,North,5.8,-,N/A,,Clear,10,2012-09-30 22:15:00
5:35 PM,68.0,42.8,40,29.93,10.0,Calm,Calm,-,N/A,,Clear,0,2012-09-30 22:35:00
5:55 PM,68.0,41.0,37,29.93,10.0,Calm,Calm,-,N/A,,Clear,0,2012-09-30 22:55:00
6:15 PM,66.2,41.0,40,29.93,10.0,NE,4.6,-,N/A,,Clear,50,2012-09-30 23:15:00
6:35 PM,66.2,41.0,40,29.93,10.0,Calm,Calm,-,N/A,,Clear,0,2012-09-30 23:35:00
6:55 PM,64.4,41.0,42,29.93,10.0,NE,3.5,-,N/A,,Clear,50,2012-09-30 23:55:00
7:15 PM,62.6,41.0,45,29.93,10.0,ENE,4.6,-,N/A,,Partly Cloudy,70,2012-10-01 00:15:00
7:35 PM,62.6,41.0,45,29.93,10.0,ENE,3.5,-,N/A,,Partly Cloudy,70,2012-10-01 00:35:00
7:55 PM,60.8,42.8,52,29.93,10.0,Calm,Calm,-,N/A,,Scattered Clouds,0,2012-10-01 00:55:00
8:15 PM,60.8,42.8,52,29.93,10.0,Calm,Calm,-,N/A,,Scattered Clouds,0,2012-10-01 01:15:00
8:35 PM,59.0,42.8,55,29.93,10.0,ENE,4.6,-,N/A,,Scattered Clouds,60,2012-10-01 01:35:00
9:15 PM,57.2,41.0,55,29.94,10.0,SE,4.6,-,N/A,,Scattered Clouds,130,2012-10-01 02:15:00
9:35 PM,57.2,42.8,59,29.94,10.0,ESE,4.6,-,N/A,,Mostly Cloudy,120,2012-10-01 02:35:00
10:15 PM,57.2,41.0,55,29.94,10.0,SE,4.6,-,N/A,,Overcast,140,2012-10-01 03:15:00
10:35 PM,57.2,41.0,55,29.94,10.0,SE,5.8,-,N/A,,Overcast,130,2012-10-01 03:35:00
10:55 PM,57.2,41.0,55,29.94,10.0,Calm,Calm,-,N/A,,Overcast,0,2012-10-01 03:55:00
11:15 PM,57.2,41.0,55,29.93,10.0,SE,4.6,-,N/A,,Overcast,140,2012-10-01 04:15:00
11:35 PM,55.4,41.0,58,29.93,10.0,SSE,3.5,-,N/A,,Overcast,150,2012-10-01 04:35:00
11:55 PM,55.4,41.0,58,29.93,10.0,Calm,Calm,-,N/A,,Overcast,0,2012-10-01 04:55:00